sensor_id;sensor_type;location;lat;lon;timestamp;P1;durP1;ratioP1;P2;durP2;ratioP2
62788;SDS011;48826;42.016;21.454;2022-12-20T00:00:59;48.23;;;32.30;;
62788;SDS011;48826;42.016;21.454;2022-12-20T00:03:25;49.87;;;32.17;;
62788;SDS011;48826;42.016;21.454;2022-12-20T00:05:50;46.80;;;30.73;;
62788;SDS011;48826;42.016;21.454;2022-12-20T00:08:16;47.60;;;30.17;;
62788;SDS011;48826;42.016;21.454;2022-12-20T00:10:43;49.80;;;30.73;;
62788;SDS011;48826;42.016;21.454;2022-12-20T00:13:09;46.13;;;28.40;;
62788;SDS011;48826;42.016;21.454;2022-12-20T00:15:35;40.70;;;28.70;;
62788;SDS011;48826;42.016;21.454;2022-12-20T00:18:01;42.27;;;28.07;;
62788;SDS011;48826;42.016;21.454;2022-12-20T00:20:27;41.03;;;27.13;;
62788;SDS011;48826;42.016;21.454;2022-12-20T00:22:54;42.53;;;27.97;;
62788;SDS011;48826;42.016;21.454;2022-12-20T00:25:20;39.83;;;25.50;;
62788;SDS011;48826;42.016;21.454;2022-12-20T00:27:46;39.23;;;25.20;;
62788;SDS011;48826;42.016;21.454;2022-12-20T00:30:12;40.07;;;26.43;;
62788;SDS011;48826;42.016;21.454;2022-12-20T00:32:38;40.00;;;25.27;;
62788;SDS011;48826;42.016;21.454;2022-12-20T00:35:03;42.43;;;27.03;;
62788;SDS011;48826;42.016;21.454;2022-12-20T00:37:29;38.23;;;26.57;;
62788;SDS011;48826;42.016;21.454;2022-12-20T00:39:55;42.60;;;26.30;;
62788;SDS011;48826;42.016;21.454;2022-12-20T00:42:21;35.03;;;23.63;;
62788;SDS011;48826;42.016;21.454;2022-12-20T00:44:46;35.90;;;24.17;;
62788;SDS011;48826;42.016;21.454;2022-12-20T00:47:12;38.50;;;24.90;;
62788;SDS011;48826;42.016;21.454;2022-12-20T00:49:38;36.40;;;24.07;;
62788;SDS011;48826;42.016;21.454;2022-12-20T00:52:04;38.13;;;25.87;;
62788;SDS011;48826;42.016;21.454;2022-12-20T00:54:29;35.47;;;26.83;;
62788;SDS011;48826;42.016;21.454;2022-12-20T00:56:55;37.87;;;25.77;;
62788;SDS011;48826;42.016;21.454;2022-12-20T00:59:20;38.63;;;25.13;;
62788;SDS011;48826;42.016;21.454;2022-12-20T01:01:46;36.43;;;25.23;;
62788;SDS011;48826;42.016;21.454;2022-12-20T01:04:12;38.33;;;24.17;;
62788;SDS011;48826;42.016;21.454;2022-12-20T01:06:44;40.30;;;25.23;;
62788;SDS011;48826;42.016;21.454;2022-12-20T01:09:10;37.00;;;25.87;;
62788;SDS011;48826;42.016;21.454;2022-12-20T01:11:37;35.43;;;24.20;;
62788;SDS011;48826;42.016;21.454;2022-12-20T01:14:07;35.37;;;23.70;;
62788;SDS011;48826;42.016;21.454;2022-12-20T01:16:37;32.67;;;24.87;;
62788;SDS011;48826;42.016;21.454;2022-12-20T01:19:05;34.17;;;23.83;;
62788;SDS011;48826;42.016;21.454;2022-12-20T01:21:32;32.23;;;23.47;;
62788;SDS011;48826;42.016;21.454;2022-12-20T01:23:58;32.90;;;22.70;;
62788;SDS011;48826;42.016;21.454;2022-12-20T01:26:25;35.17;;;23.10;;
62788;SDS011;48826;42.016;21.454;2022-12-20T01:28:56;35.90;;;23.57;;
62788;SDS011;48826;42.016;21.454;2022-12-20T01:31:23;30.60;;;22.77;;
62788;SDS011;48826;42.016;21.454;2022-12-20T01:33:50;32.73;;;22.23;;
62788;SDS011;48826;42.016;21.454;2022-12-20T01:36:18;31.80;;;21.87;;
62788;SDS011;48826;42.016;21.454;2022-12-20T01:38:46;32.97;;;22.77;;
62788;SDS011;48826;42.016;21.454;2022-12-20T01:41:18;30.10;;;22.33;;
62788;SDS011;48826;42.016;21.454;2022-12-20T01:43:45;30.53;;;22.40;;
62788;SDS011;48826;42.016;21.454;2022-12-20T01:46:29;32.57;;;21.73;;
62788;SDS011;48826;42.016;21.454;2022-12-20T01:51:28;28.83;;;22.00;;
62788;SDS011;48826;42.016;21.454;2022-12-20T01:54:04;30.50;;;22.37;;
62788;SDS011;48826;42.016;21.454;2022-12-20T01:56:36;30.17;;;20.83;;
62788;SDS011;48826;42.016;21.454;2022-12-20T01:59:04;29.73;;;21.63;;
62788;SDS011;48826;42.016;21.454;2022-12-20T02:01:31;30.67;;;21.67;;
62788;SDS011;48826;42.016;21.454;2022-12-20T02:03:58;33.30;;;21.60;;
62788;SDS011;48826;42.016;21.454;2022-12-20T02:06:24;30.13;;;20.67;;
62788;SDS011;48826;42.016;21.454;2022-12-20T02:08:52;30.67;;;20.47;;
62788;SDS011;48826;42.016;21.454;2022-12-20T02:11:23;28.70;;;19.50;;
62788;SDS011;48826;42.016;21.454;2022-12-20T02:16:45;27.80;;;19.70;;
62788;SDS011;48826;42.016;21.454;2022-12-20T02:19:40;28.20;;;19.77;;
62788;SDS011;48826;42.016;21.454;2022-12-20T02:31:00;26.57;;;19.00;;
62788;SDS011;48826;42.016;21.454;2022-12-20T02:33:32;28.50;;;20.00;;
62788;SDS011;48826;42.016;21.454;2022-12-20T02:35:57;29.07;;;19.27;;
62788;SDS011;48826;42.016;21.454;2022-12-20T02:38:25;24.43;;;18.17;;
62788;SDS011;48826;42.016;21.454;2022-12-20T02:41:00;26.93;;;19.20;;
62788;SDS011;48826;42.016;21.454;2022-12-20T02:43:31;28.33;;;20.07;;
62788;SDS011;48826;42.016;21.454;2022-12-20T02:46:18;28.17;;;19.60;;
62788;SDS011;48826;42.016;21.454;2022-12-20T02:48:45;26.57;;;20.00;;
62788;SDS011;48826;42.016;21.454;2022-12-20T02:51:12;28.10;;;19.57;;
62788;SDS011;48826;42.016;21.454;2022-12-20T02:53:39;25.33;;;17.87;;
62788;SDS011;48826;42.016;21.454;2022-12-20T02:58:51;28.53;;;20.20;;
62788;SDS011;48826;42.016;21.454;2022-12-20T03:01:44;26.93;;;19.00;;
62788;SDS011;48826;42.016;21.454;2022-12-20T03:04:10;30.23;;;19.03;;
62788;SDS011;48826;42.016;21.454;2022-12-20T03:06:38;27.23;;;18.33;;
62788;SDS011;48826;42.016;21.454;2022-12-20T03:09:03;29.40;;;20.73;;
62788;SDS011;48826;42.016;21.454;2022-12-20T03:11:29;29.17;;;19.53;;
62788;SDS011;48826;42.016;21.454;2022-12-20T03:13:55;31.77;;;20.03;;
62788;SDS011;48826;42.016;21.454;2022-12-20T03:16:20;26.97;;;18.83;;
62788;SDS011;48826;42.016;21.454;2022-12-20T03:18:46;27.43;;;19.10;;
62788;SDS011;48826;42.016;21.454;2022-12-20T03:21:12;27.50;;;19.57;;
62788;SDS011;48826;42.016;21.454;2022-12-20T03:23:37;27.30;;;18.80;;
62788;SDS011;48826;42.016;21.454;2022-12-20T03:26:06;28.43;;;19.07;;
62788;SDS011;48826;42.016;21.454;2022-12-20T03:28:32;26.77;;;18.70;;
62788;SDS011;48826;42.016;21.454;2022-12-20T03:30:57;29.93;;;19.37;;
62788;SDS011;48826;42.016;21.454;2022-12-20T03:33:23;28.23;;;19.70;;
62788;SDS011;48826;42.016;21.454;2022-12-20T03:35:48;26.13;;;18.23;;
62788;SDS011;48826;42.016;21.454;2022-12-20T03:38:14;27.83;;;18.70;;
62788;SDS011;48826;42.016;21.454;2022-12-20T03:40:39;27.47;;;19.30;;
62788;SDS011;48826;42.016;21.454;2022-12-20T03:43:05;28.77;;;18.60;;
62788;SDS011;48826;42.016;21.454;2022-12-20T03:45:30;27.37;;;20.00;;
62788;SDS011;48826;42.016;21.454;2022-12-20T03:47:56;24.20;;;18.80;;
62788;SDS011;48826;42.016;21.454;2022-12-20T03:50:21;24.87;;;17.87;;
62788;SDS011;48826;42.016;21.454;2022-12-20T03:52:47;26.43;;;19.03;;
62788;SDS011;48826;42.016;21.454;2022-12-20T03:55:12;25.93;;;18.30;;
62788;SDS011;48826;42.016;21.454;2022-12-20T03:57:38;26.00;;;17.60;;
62788;SDS011;48826;42.016;21.454;2022-12-20T04:00:04;27.07;;;18.27;;
62788;SDS011;48826;42.016;21.454;2022-12-20T04:02:30;25.07;;;18.53;;
62788;SDS011;48826;42.016;21.454;2022-12-20T04:04:56;28.17;;;19.03;;
62788;SDS011;48826;42.016;21.454;2022-12-20T04:07:21;23.67;;;17.87;;
62788;SDS011;48826;42.016;21.454;2022-12-20T04:09:47;27.23;;;18.30;;
62788;SDS011;48826;42.016;21.454;2022-12-20T04:12:12;27.13;;;19.60;;
62788;SDS011;48826;42.016;21.454;2022-12-20T04:14:38;26.77;;;18.80;;
62788;SDS011;48826;42.016;21.454;2022-12-20T04:17:04;27.03;;;17.70;;
62788;SDS011;48826;42.016;21.454;2022-12-20T04:19:29;28.63;;;18.73;;
62788;SDS011;48826;42.016;21.454;2022-12-20T04:21:55;25.37;;;18.03;;
62788;SDS011;48826;42.016;21.454;2022-12-20T04:24:22;25.17;;;18.10;;
62788;SDS011;48826;42.016;21.454;2022-12-20T04:26:48;25.73;;;18.03;;
62788;SDS011;48826;42.016;21.454;2022-12-20T04:29:14;27.07;;;18.40;;
62788;SDS011;48826;42.016;21.454;2022-12-20T04:31:39;26.27;;;17.57;;
62788;SDS011;48826;42.016;21.454;2022-12-20T04:34:06;26.70;;;17.27;;
62788;SDS011;48826;42.016;21.454;2022-12-20T04:36:31;28.10;;;18.57;;
62788;SDS011;48826;42.016;21.454;2022-12-20T04:38:57;24.83;;;18.57;;
62788;SDS011;48826;42.016;21.454;2022-12-20T04:41:22;24.00;;;18.03;;
62788;SDS011;48826;42.016;21.454;2022-12-20T04:43:52;25.73;;;17.67;;
62788;SDS011;48826;42.016;21.454;2022-12-20T04:46:20;25.03;;;17.77;;
62788;SDS011;48826;42.016;21.454;2022-12-20T04:48:46;23.97;;;17.53;;
62788;SDS011;48826;42.016;21.454;2022-12-20T04:51:12;23.33;;;16.73;;
62788;SDS011;48826;42.016;21.454;2022-12-20T04:53:38;31.23;;;18.30;;
62788;SDS011;48826;42.016;21.454;2022-12-20T04:56:13;23.23;;;17.03;;
62788;SDS011;48826;42.016;21.454;2022-12-20T04:58:51;26.40;;;17.57;;
62788;SDS011;48826;42.016;21.454;2022-12-20T05:01:18;27.67;;;17.67;;
62788;SDS011;48826;42.016;21.454;2022-12-20T05:03:44;25.03;;;17.53;;
62788;SDS011;48826;42.016;21.454;2022-12-20T05:06:10;24.40;;;17.47;;
62788;SDS011;48826;42.016;21.454;2022-12-20T05:11:29;25.50;;;18.00;;
62788;SDS011;48826;42.016;21.454;2022-12-20T05:13:54;24.30;;;17.13;;
62788;SDS011;48826;42.016;21.454;2022-12-20T05:16:20;24.90;;;17.13;;
62788;SDS011;48826;42.016;21.454;2022-12-20T05:18:45;25.37;;;17.63;;
62788;SDS011;48826;42.016;21.454;2022-12-20T05:21:11;27.57;;;18.33;;
62788;SDS011;48826;42.016;21.454;2022-12-20T05:23:55;27.93;;;18.00;;
62788;SDS011;48826;42.016;21.454;2022-12-20T05:26:39;26.50;;;18.47;;
62788;SDS011;48826;42.016;21.454;2022-12-20T05:29:05;28.40;;;18.93;;
62788;SDS011;48826;42.016;21.454;2022-12-20T05:31:30;27.10;;;18.13;;
62788;SDS011;48826;42.016;21.454;2022-12-20T05:33:56;29.53;;;18.63;;
62788;SDS011;48826;42.016;21.454;2022-12-20T05:36:22;24.47;;;17.40;;
62788;SDS011;48826;42.016;21.454;2022-12-20T05:38:47;25.80;;;18.30;;
62788;SDS011;48826;42.016;21.454;2022-12-20T05:41:13;30.00;;;18.67;;
62788;SDS011;48826;42.016;21.454;2022-12-20T05:43:39;25.93;;;18.33;;
62788;SDS011;48826;42.016;21.454;2022-12-20T05:46:05;26.00;;;18.17;;
62788;SDS011;48826;42.016;21.454;2022-12-20T05:48:31;27.27;;;18.30;;
62788;SDS011;48826;42.016;21.454;2022-12-20T05:50:57;24.13;;;17.23;;
62788;SDS011;48826;42.016;21.454;2022-12-20T05:53:23;25.50;;;18.63;;
62788;SDS011;48826;42.016;21.454;2022-12-20T05:55:51;25.70;;;17.97;;
62788;SDS011;48826;42.016;21.454;2022-12-20T05:58:18;26.90;;;17.53;;
62788;SDS011;48826;42.016;21.454;2022-12-20T06:00:44;25.83;;;18.00;;
62788;SDS011;48826;42.016;21.454;2022-12-20T06:03:09;25.43;;;18.47;;
62788;SDS011;48826;42.016;21.454;2022-12-20T06:05:36;25.83;;;17.63;;
62788;SDS011;48826;42.016;21.454;2022-12-20T06:08:03;27.47;;;18.30;;
62788;SDS011;48826;42.016;21.454;2022-12-20T06:10:30;26.50;;;18.07;;
62788;SDS011;48826;42.016;21.454;2022-12-20T06:12:56;26.03;;;17.60;;
62788;SDS011;48826;42.016;21.454;2022-12-20T06:15:22;24.83;;;17.67;;
62788;SDS011;48826;42.016;21.454;2022-12-20T06:17:47;25.03;;;17.67;;
62788;SDS011;48826;42.016;21.454;2022-12-20T06:20:13;28.77;;;18.53;;
62788;SDS011;48826;42.016;21.454;2022-12-20T06:22:38;28.53;;;18.50;;
62788;SDS011;48826;42.016;21.454;2022-12-20T06:25:04;28.67;;;18.27;;
62788;SDS011;48826;42.016;21.454;2022-12-20T06:27:33;28.27;;;18.43;;
62788;SDS011;48826;42.016;21.454;2022-12-20T06:29:58;24.93;;;18.00;;
62788;SDS011;48826;42.016;21.454;2022-12-20T06:32:24;28.07;;;18.77;;
62788;SDS011;48826;42.016;21.454;2022-12-20T06:34:49;24.97;;;17.63;;
62788;SDS011;48826;42.016;21.454;2022-12-20T06:37:15;23.53;;;17.57;;
62788;SDS011;48826;42.016;21.454;2022-12-20T06:39:41;30.63;;;19.57;;
62788;SDS011;48826;42.016;21.454;2022-12-20T06:42:06;26.70;;;17.73;;
62788;SDS011;48826;42.016;21.454;2022-12-20T06:44:32;22.33;;;17.13;;
62788;SDS011;48826;42.016;21.454;2022-12-20T06:46:57;24.73;;;18.30;;
62788;SDS011;48826;42.016;21.454;2022-12-20T06:49:23;24.63;;;18.03;;
62788;SDS011;48826;42.016;21.454;2022-12-20T06:51:49;28.00;;;17.97;;
62788;SDS011;48826;42.016;21.454;2022-12-20T06:54:15;37.10;;;23.40;;
62788;SDS011;48826;42.016;21.454;2022-12-20T06:56:41;55.50;;;34.00;;
62788;SDS011;48826;42.016;21.454;2022-12-20T06:59:06;61.87;;;37.83;;
62788;SDS011;48826;42.016;21.454;2022-12-20T07:01:32;63.60;;;36.30;;
62788;SDS011;48826;42.016;21.454;2022-12-20T07:03:57;57.23;;;35.87;;
62788;SDS011;48826;42.016;21.454;2022-12-20T07:06:23;55.63;;;34.27;;
62788;SDS011;48826;42.016;21.454;2022-12-20T07:08:49;58.37;;;37.47;;
62788;SDS011;48826;42.016;21.454;2022-12-20T07:11:14;60.27;;;36.27;;
62788;SDS011;48826;42.016;21.454;2022-12-20T07:13:39;57.73;;;37.03;;
62788;SDS011;48826;42.016;21.454;2022-12-20T07:16:05;61.23;;;36.13;;
62788;SDS011;48826;42.016;21.454;2022-12-20T07:18:31;56.53;;;34.23;;
62788;SDS011;48826;42.016;21.454;2022-12-20T07:20:59;63.40;;;37.50;;
62788;SDS011;48826;42.016;21.454;2022-12-20T07:23:29;65.63;;;41.27;;
62788;SDS011;48826;42.016;21.454;2022-12-20T07:25:55;69.00;;;40.60;;
62788;SDS011;48826;42.016;21.454;2022-12-20T07:28:22;68.20;;;40.33;;
62788;SDS011;48826;42.016;21.454;2022-12-20T07:30:49;69.10;;;41.30;;
62788;SDS011;48826;42.016;21.454;2022-12-20T07:33:15;60.03;;;38.30;;
62788;SDS011;48826;42.016;21.454;2022-12-20T07:35:41;67.40;;;41.63;;
62788;SDS011;48826;42.016;21.454;2022-12-20T07:38:10;65.03;;;40.77;;
62788;SDS011;48826;42.016;21.454;2022-12-20T07:40:38;67.43;;;41.00;;
62788;SDS011;48826;42.016;21.454;2022-12-20T07:43:06;76.63;;;48.23;;
62788;SDS011;48826;42.016;21.454;2022-12-20T07:45:31;82.03;;;49.43;;
62788;SDS011;48826;42.016;21.454;2022-12-20T07:47:58;89.17;;;51.87;;
62788;SDS011;48826;42.016;21.454;2022-12-20T07:50:23;83.63;;;51.17;;
62788;SDS011;48826;42.016;21.454;2022-12-20T07:52:50;88.80;;;52.83;;
62788;SDS011;48826;42.016;21.454;2022-12-20T07:55:16;84.43;;;51.90;;
62788;SDS011;48826;42.016;21.454;2022-12-20T07:57:49;95.60;;;55.77;;
62788;SDS011;48826;42.016;21.454;2022-12-20T08:00:19;91.67;;;53.23;;
62788;SDS011;48826;42.016;21.454;2022-12-20T08:02:49;77.87;;;48.83;;
62788;SDS011;48826;42.016;21.454;2022-12-20T08:05:41;91.13;;;54.50;;
62788;SDS011;48826;42.016;21.454;2022-12-20T08:08:10;95.20;;;56.40;;
62788;SDS011;48826;42.016;21.454;2022-12-20T08:10:37;101.70;;;57.17;;
62788;SDS011;48826;42.016;21.454;2022-12-20T08:13:03;90.83;;;56.83;;
62788;SDS011;48826;42.016;21.454;2022-12-20T08:15:30;95.23;;;56.60;;
62788;SDS011;48826;42.016;21.454;2022-12-20T08:17:57;99.43;;;58.63;;
62788;SDS011;48826;42.016;21.454;2022-12-20T08:20:23;98.33;;;57.93;;
62788;SDS011;48826;42.016;21.454;2022-12-20T08:22:49;95.77;;;59.40;;
62788;SDS011;48826;42.016;21.454;2022-12-20T08:25:14;99.20;;;59.80;;
62788;SDS011;48826;42.016;21.454;2022-12-20T08:27:40;98.63;;;59.17;;
62788;SDS011;48826;42.016;21.454;2022-12-20T08:30:05;97.00;;;60.03;;
62788;SDS011;48826;42.016;21.454;2022-12-20T08:32:33;110.07;;;64.47;;
62788;SDS011;48826;42.016;21.454;2022-12-20T08:34:58;107.70;;;65.03;;
62788;SDS011;48826;42.016;21.454;2022-12-20T08:37:24;105.60;;;62.00;;
62788;SDS011;48826;42.016;21.454;2022-12-20T08:39:49;112.47;;;66.17;;
62788;SDS011;48826;42.016;21.454;2022-12-20T08:42:14;113.63;;;68.50;;
62788;SDS011;48826;42.016;21.454;2022-12-20T08:44:40;107.40;;;67.33;;
62788;SDS011;48826;42.016;21.454;2022-12-20T08:47:05;116.80;;;68.77;;
62788;SDS011;48826;42.016;21.454;2022-12-20T08:49:32;119.37;;;70.33;;
62788;SDS011;48826;42.016;21.454;2022-12-20T08:51:57;116.27;;;70.63;;
62788;SDS011;48826;42.016;21.454;2022-12-20T08:54:23;111.90;;;64.40;;
62788;SDS011;48826;42.016;21.454;2022-12-20T08:56:48;106.97;;;64.93;;
62788;SDS011;48826;42.016;21.454;2022-12-20T08:59:14;110.73;;;68.40;;
62788;SDS011;48826;42.016;21.454;2022-12-20T09:01:39;115.07;;;70.47;;
62788;SDS011;48826;42.016;21.454;2022-12-20T09:04:05;107.50;;;67.73;;
62788;SDS011;48826;42.016;21.454;2022-12-20T09:06:31;117.93;;;72.53;;
62788;SDS011;48826;42.016;21.454;2022-12-20T09:08:58;124.90;;;74.50;;
62788;SDS011;48826;42.016;21.454;2022-12-20T09:11:24;124.87;;;76.63;;
62788;SDS011;48826;42.016;21.454;2022-12-20T09:13:52;119.07;;;72.30;;
62788;SDS011;48826;42.016;21.454;2022-12-20T09:16:20;131.43;;;77.83;;
62788;SDS011;48826;42.016;21.454;2022-12-20T09:18:48;118.23;;;73.47;;
62788;SDS011;48826;42.016;21.454;2022-12-20T09:21:15;129.43;;;78.17;;
62788;SDS011;48826;42.016;21.454;2022-12-20T09:23:41;126.20;;;78.27;;
62788;SDS011;48826;42.016;21.454;2022-12-20T09:26:09;122.67;;;75.80;;
62788;SDS011;48826;42.016;21.454;2022-12-20T09:28:36;124.03;;;76.20;;
62788;SDS011;48826;42.016;21.454;2022-12-20T09:31:02;121.23;;;74.37;;
62788;SDS011;48826;42.016;21.454;2022-12-20T09:33:30;118.97;;;75.03;;
62788;SDS011;48826;42.016;21.454;2022-12-20T09:35:58;122.03;;;76.37;;
62788;SDS011;48826;42.016;21.454;2022-12-20T09:38:24;128.60;;;80.07;;
62788;SDS011;48826;42.016;21.454;2022-12-20T09:40:52;130.37;;;81.17;;
62788;SDS011;48826;42.016;21.454;2022-12-20T09:43:21;131.33;;;81.00;;
62788;SDS011;48826;42.016;21.454;2022-12-20T09:45:49;147.50;;;88.20;;
62788;SDS011;48826;42.016;21.454;2022-12-20T09:48:24;135.17;;;81.10;;
62788;SDS011;48826;42.016;21.454;2022-12-20T09:53:50;142.00;;;82.93;;
62788;SDS011;48826;42.016;21.454;2022-12-20T09:56:37;131.67;;;81.37;;
62788;SDS011;48826;42.016;21.454;2022-12-20T09:59:17;141.93;;;85.40;;
62788;SDS011;48826;42.016;21.454;2022-12-20T10:01:44;143.67;;;84.80;;
62788;SDS011;48826;42.016;21.454;2022-12-20T10:04:32;145.07;;;86.57;;
62788;SDS011;48826;42.016;21.454;2022-12-20T10:09:34;57.57;;;38.63;;
62788;SDS011;48826;42.016;21.454;2022-12-20T10:21:19;107.40;;;65.40;;
62788;SDS011;48826;42.016;21.454;2022-12-20T10:26:54;96.30;;;61.20;;
62788;SDS011;48826;42.016;21.454;2022-12-20T10:29:21;109.97;;;63.17;;
62788;SDS011;48826;42.016;21.454;2022-12-20T10:31:52;104.13;;;61.90;;
62788;SDS011;48826;42.016;21.454;2022-12-20T10:34:23;105.70;;;63.43;;
62788;SDS011;48826;42.016;21.454;2022-12-20T10:36:48;109.23;;;65.20;;
62788;SDS011;48826;42.016;21.454;2022-12-20T10:39:39;101.83;;;62.97;;
62788;SDS011;48826;42.016;21.454;2022-12-20T10:42:30;103.10;;;62.67;;
62788;SDS011;48826;42.016;21.454;2022-12-20T10:45:00;94.47;;;59.93;;
62788;SDS011;48826;42.016;21.454;2022-12-20T10:47:35;100.70;;;63.93;;
62788;SDS011;48826;42.016;21.454;2022-12-20T10:50:15;106.80;;;62.37;;
62788;SDS011;48826;42.016;21.454;2022-12-20T10:52:41;106.87;;;62.67;;
62788;SDS011;48826;42.016;21.454;2022-12-20T10:58:00;98.93;;;58.30;;
62788;SDS011;48826;42.016;21.454;2022-12-20T11:00:29;100.67;;;60.43;;
62788;SDS011;48826;42.016;21.454;2022-12-20T11:03:09;97.93;;;59.57;;
62788;SDS011;48826;42.016;21.454;2022-12-20T11:05:38;102.47;;;59.80;;
62788;SDS011;48826;42.016;21.454;2022-12-20T11:10:32;103.10;;;62.50;;
62788;SDS011;48826;42.016;21.454;2022-12-20T11:12:58;93.60;;;59.07;;
62788;SDS011;48826;42.016;21.454;2022-12-20T11:21:22;94.33;;;58.23;;
62788;SDS011;48826;42.016;21.454;2022-12-20T11:32:17;97.70;;;60.67;;
62788;SDS011;48826;42.016;21.454;2022-12-20T11:40:35;99.73;;;59.60;;
62788;SDS011;48826;42.016;21.454;2022-12-20T11:43:21;90.73;;;56.90;;
62788;SDS011;48826;42.016;21.454;2022-12-20T11:46:02;90.80;;;57.43;;
62788;SDS011;48826;42.016;21.454;2022-12-20T11:48:37;87.23;;;54.67;;
62788;SDS011;48826;42.016;21.454;2022-12-20T11:51:22;91.17;;;57.40;;
62788;SDS011;48826;42.016;21.454;2022-12-20T11:54:02;85.90;;;54.33;;
62788;SDS011;48826;42.016;21.454;2022-12-20T11:56:32;96.60;;;57.27;;
62788;SDS011;48826;42.016;21.454;2022-12-20T11:59:00;85.30;;;52.03;;
62788;SDS011;48826;42.016;21.454;2022-12-20T12:01:33;90.17;;;57.43;;
62788;SDS011;48826;42.016;21.454;2022-12-20T12:04:19;87.67;;;55.33;;
62788;SDS011;48826;42.016;21.454;2022-12-20T12:06:55;92.13;;;57.33;;
62788;SDS011;48826;42.016;21.454;2022-12-20T12:09:39;86.93;;;56.57;;
62788;SDS011;48826;42.016;21.454;2022-12-20T12:12:10;87.43;;;53.87;;
62788;SDS011;48826;42.016;21.454;2022-12-20T12:14:48;88.13;;;55.67;;
62788;SDS011;48826;42.016;21.454;2022-12-20T12:17:27;65.90;;;43.17;;
62788;SDS011;48826;42.016;21.454;2022-12-20T12:19:55;76.47;;;48.40;;
62788;SDS011;48826;42.016;21.454;2022-12-20T12:22:38;74.83;;;48.27;;
62788;SDS011;48826;42.016;21.454;2022-12-20T12:25:08;81.10;;;48.63;;
62788;SDS011;48826;42.016;21.454;2022-12-20T12:27:38;73.43;;;47.47;;
62788;SDS011;48826;42.016;21.454;2022-12-20T12:30:04;79.97;;;48.17;;
62788;SDS011;48826;42.016;21.454;2022-12-20T12:32:32;75.07;;;47.37;;
62788;SDS011;48826;42.016;21.454;2022-12-20T12:43:46;75.87;;;47.30;;
62788;SDS011;48826;42.016;21.454;2022-12-20T12:46:16;75.73;;;45.43;;
62788;SDS011;48826;42.016;21.454;2022-12-20T12:48:44;71.53;;;47.27;;
62788;SDS011;48826;42.016;21.454;2022-12-20T12:51:19;73.67;;;45.60;;
62788;SDS011;48826;42.016;21.454;2022-12-20T12:53:54;69.80;;;47.03;;
62788;SDS011;48826;42.016;21.454;2022-12-20T13:06:55;76.17;;;47.63;;
62788;SDS011;48826;42.016;21.454;2022-12-20T13:11:49;71.40;;;46.57;;
62788;SDS011;48826;42.016;21.454;2022-12-20T13:16:45;75.10;;;46.10;;
62788;SDS011;48826;42.016;21.454;2022-12-20T13:19:13;79.53;;;47.93;;
62788;SDS011;48826;42.016;21.454;2022-12-20T13:21:44;73.57;;;45.57;;
62788;SDS011;48826;42.016;21.454;2022-12-20T13:30:01;73.27;;;45.43;;
62788;SDS011;48826;42.016;21.454;2022-12-20T13:37:51;70.40;;;46.67;;
62788;SDS011;48826;42.016;21.454;2022-12-20T13:51:12;72.23;;;46.53;;
62788;SDS011;48826;42.016;21.454;2022-12-20T13:53:48;69.93;;;43.93;;
62788;SDS011;48826;42.016;21.454;2022-12-20T13:56:37;70.83;;;45.47;;
62788;SDS011;48826;42.016;21.454;2022-12-20T13:59:17;66.63;;;43.83;;
62788;SDS011;48826;42.016;21.454;2022-12-20T14:01:53;69.77;;;45.07;;
62788;SDS011;48826;42.016;21.454;2022-12-20T14:04:21;71.77;;;45.77;;
62788;SDS011;48826;42.016;21.454;2022-12-20T14:06:51;68.50;;;44.20;;
62788;SDS011;48826;42.016;21.454;2022-12-20T14:09:25;73.93;;;45.97;;
62788;SDS011;48826;42.016;21.454;2022-12-20T14:12:03;72.20;;;45.00;;
62788;SDS011;48826;42.016;21.454;2022-12-20T14:14:49;71.13;;;45.30;;
62788;SDS011;48826;42.016;21.454;2022-12-20T14:17:16;69.63;;;44.20;;
62788;SDS011;48826;42.016;21.454;2022-12-20T14:22:36;75.50;;;45.30;;
62788;SDS011;48826;42.016;21.454;2022-12-20T14:25:04;77.23;;;46.77;;
62788;SDS011;48826;42.016;21.454;2022-12-20T14:27:33;73.70;;;44.43;;
62788;SDS011;48826;42.016;21.454;2022-12-20T14:30:01;73.90;;;45.93;;
62788;SDS011;48826;42.016;21.454;2022-12-20T14:32:27;71.33;;;44.67;;
62788;SDS011;48826;42.016;21.454;2022-12-20T14:34:53;71.50;;;44.60;;
62788;SDS011;48826;42.016;21.454;2022-12-20T14:39:54;75.73;;;47.87;;
62788;SDS011;48826;42.016;21.454;2022-12-20T14:42:20;74.23;;;46.13;;
62788;SDS011;48826;42.016;21.454;2022-12-20T14:44:45;83.97;;;49.37;;
62788;SDS011;48826;42.016;21.454;2022-12-20T14:47:24;74.10;;;47.03;;
62788;SDS011;48826;42.016;21.454;2022-12-20T14:49:53;76.03;;;47.30;;
62788;SDS011;48826;42.016;21.454;2022-12-20T15:00:28;66.67;;;41.07;;
62788;SDS011;48826;42.016;21.454;2022-12-20T15:02:58;67.03;;;42.03;;
62788;SDS011;48826;42.016;21.454;2022-12-20T15:10:52;53.07;;;34.67;;
62788;SDS011;48826;42.016;21.454;2022-12-20T15:13:19;52.17;;;33.27;;
62788;SDS011;48826;42.016;21.454;2022-12-20T15:15:47;53.53;;;33.87;;
62788;SDS011;48826;42.016;21.454;2022-12-20T15:18:13;50.93;;;32.33;;
62788;SDS011;48826;42.016;21.454;2022-12-20T15:20:41;48.30;;;30.63;;
62788;SDS011;48826;42.016;21.454;2022-12-20T15:23:19;51.70;;;32.43;;
62788;SDS011;48826;42.016;21.454;2022-12-20T15:25:46;43.60;;;31.10;;
62788;SDS011;48826;42.016;21.454;2022-12-20T15:28:16;50.70;;;32.70;;
62788;SDS011;48826;42.016;21.454;2022-12-20T15:30:45;69.63;;;43.07;;
62788;SDS011;48826;42.016;21.454;2022-12-20T15:33:25;75.57;;;45.30;;
62788;SDS011;48826;42.016;21.454;2022-12-20T15:35:52;69.73;;;44.87;;
62788;SDS011;48826;42.016;21.454;2022-12-20T15:38:19;72.77;;;45.23;;
62788;SDS011;48826;42.016;21.454;2022-12-20T15:40:51;78.83;;;48.20;;
62788;SDS011;48826;42.016;21.454;2022-12-20T15:43:20;73.50;;;47.23;;
62788;SDS011;48826;42.016;21.454;2022-12-20T15:45:51;79.63;;;46.40;;
62788;SDS011;48826;42.016;21.454;2022-12-20T15:48:22;70.13;;;44.60;;
62788;SDS011;48826;42.016;21.454;2022-12-20T15:50:49;76.77;;;47.37;;
62788;SDS011;48826;42.016;21.454;2022-12-20T15:53:20;76.57;;;45.67;;
62788;SDS011;48826;42.016;21.454;2022-12-20T15:55:49;69.37;;;42.67;;
62788;SDS011;48826;42.016;21.454;2022-12-20T15:58:15;74.57;;;45.33;;
62788;SDS011;48826;42.016;21.454;2022-12-20T16:00:41;78.03;;;45.97;;
62788;SDS011;48826;42.016;21.454;2022-12-20T16:03:13;77.93;;;48.00;;
62788;SDS011;48826;42.016;21.454;2022-12-20T16:05:42;72.40;;;44.70;;
62788;SDS011;48826;42.016;21.454;2022-12-20T16:08:07;74.03;;;45.60;;
62788;SDS011;48826;42.016;21.454;2022-12-20T16:10:33;78.43;;;46.10;;
62788;SDS011;48826;42.016;21.454;2022-12-20T16:12:59;74.47;;;47.23;;
62788;SDS011;48826;42.016;21.454;2022-12-20T16:15:24;81.00;;;49.43;;
62788;SDS011;48826;42.016;21.454;2022-12-20T16:17:50;80.07;;;50.00;;
62788;SDS011;48826;42.016;21.454;2022-12-20T16:20:15;78.00;;;48.80;;
62788;SDS011;48826;42.016;21.454;2022-12-20T16:22:41;86.23;;;48.93;;